Ammon, VA

4:02 PM EDT on July 29, 2015 (GMT -0400)
Dinwiddie | | Change Station
CLOSE
Current Station
Personal Weather Station
Location: Dinwiddie, VA
Elevation: 243 ft
Nearby Weather Stations

Elev 243 ft 37.11 °N, 77.56 °W | Updated 2 minutes ago

Overcast
Overcast
84.6 °F
Feels Like 92 °F
N
2.2
Wind Variable Wind from West

Today
High -- | Low -- °F
--% Chance of Precip.
Yesterday
High -- | Low -- °F
Precip. -- in
6:12 AM 8:20 PM
Waxing Gibbous, 96% visible
Pressure 30.01 in
Visibility 10.0 miles
Clouds Overcast 11000 ft
Heat Index 92 °F
Dew Point 74 °F
Humidity 70%
Rainfall 0.36 in
Snow Depth Not available.
UV 2 out of 12
Pollen 4.50 out of 12
Air Quality Not available.
Flu Activity Not available.
METAR KPTB 291955Z AUTO 00000KT 10SM OVC110 28/24 A3001 RMK AO2 T02820239

More Conditions Fewer Conditions

Pressure 30.01 in
Visibility 10.0 miles
Clouds Overcast 11000 ft
Heat Index 92 °F
Dew Point 74 °F
Humidity 70%
Rainfall 0.36 in
Snow Depth Not available.
UV 2 out of 12
Pollen 4.50 out of 12
Air Quality Not available.
Flu Activity Not available.
METAR KPTB 291955Z AUTO 00000KT 10SM OVC110 28/24 A3001 RMK AO2 T02820239

More Conditions Fewer Conditions

10-Day Weather Forecast

×

Almanac

Astronomy

Jul. 29, 2015 Rise Set
Actual Time
Civil Twilight
Nautical Twilight
Astronomical Twilight
Moon
Length of Visible Light
Length of Day
Tomorrow will be .
, % of the Moon is Illuminated

Today's Extremes

State Highs State Lows

Community

WunderPhotos

Upload Photos

1,842,157 photos uploaded!

WunderBlogs® & News

Nearby

Air Quality

  Air Quality AQ Index Pollutant
Not available.

Snow Depth

Station Depth Elevation

Earthquake Activity

City Distance Mag. Time & Date
Minimum magnitude displayed is 2.5.

Coastal Water Temperatures

Place Temperature

Stations

Nearby Weather Stations

Station Location Temp. Windchill Dew Point Humidity Wind Precip. Elev Updated Type